createdAt,value
2023-01-04T17:55:18.771Z,2.74
2023-01-04T18:00:25.087Z,2.30
2023-01-04T18:05:39.480Z,5.03
2023-01-04T18:10:48.775Z,3.31
2023-01-04T18:15:55.188Z,6.86
2023-01-04T18:20:49.499Z,4.24
2023-01-04T18:25:55.571Z,7.97
2023-01-04T18:31:01.735Z,6.04
2023-01-04T18:36:08.181Z,5.34
2023-01-04T18:41:14.560Z,5.45
2023-01-04T18:46:20.893Z,7.72
2023-01-04T18:51:27.199Z,6.85
2023-01-04T18:56:33.741Z,5.23
2023-01-04T19:01:40.062Z,9.86
2023-01-04T19:06:46.263Z,8.33
2023-01-04T19:11:52.425Z,8.05
2023-01-04T19:16:59.120Z,6.68
2023-01-04T19:22:05.293Z,8.31
2023-01-04T19:27:11.774Z,5.76
2023-01-04T19:32:17.932Z,8.23
2023-01-04T19:37:24.187Z,6.48
2023-01-04T19:42:30.454Z,5.80
2023-01-04T19:47:36.752Z,5.91
2023-01-04T19:52:43.098Z,6.37
2023-01-04T19:57:49.809Z,6.77
2023-01-04T20:02:57.152Z,6.42
2023-01-04T20:08:03.217Z,7.22
2023-01-04T20:13:09.585Z,7.99
2023-01-04T20:18:16.889Z,9.30
2023-01-04T20:23:23.053Z,7.26
2023-01-04T20:28:29.447Z,6.60
2023-01-04T20:33:35.831Z,7.37
2023-01-04T20:38:42.080Z,10.61
2023-01-04T20:43:48.237Z,8.76
2023-01-04T20:48:54.592Z,8.69
2023-01-04T20:54:00.809Z,8.25
2023-01-04T20:59:07.450Z,11.42
2023-01-04T21:04:18.611Z,14.05
2023-01-04T21:09:15.095Z,12.86
2023-01-04T21:14:21.571Z,13.03
2023-01-04T21:19:27.942Z,14.43
2023-01-04T21:24:34.132Z,11.39
2023-01-04T21:29:40.972Z,10.26
2023-01-04T21:34:47.157Z,10.88
2023-01-04T21:39:53.636Z,11.92
2023-01-04T21:44:59.873Z,9.09
2023-01-04T21:50:06.240Z,11.48
2023-01-04T21:55:12.448Z,9.82
2023-01-04T22:00:18.918Z,10.44
2023-01-04T22:05:25.083Z,12.01
2023-01-04T22:10:32.231Z,9.98
2023-01-04T22:15:38.656Z,12.58
2023-01-04T22:20:45.333Z,10.21
2023-01-04T22:25:51.487Z,15.27
2023-01-04T22:30:57.970Z,13.43
2023-01-04T22:36:04.313Z,13.56
2023-01-04T22:41:10.807Z,17.54
2023-01-04T22:46:17.156Z,12.04
2023-01-04T22:51:23.071Z,12.95
2023-01-04T22:56:29.230Z,12.17
2023-01-04T23:01:35.698Z,12.11
2023-01-04T23:06:41.842Z,12.91
2023-01-04T23:11:48.190Z,13.05
2023-01-04T23:16:54.409Z,11.50
2023-01-04T23:22:00.916Z,12.42
2023-01-04T23:27:07.228Z,10.92
2023-01-04T23:32:13.638Z,11.30
2023-01-04T23:37:20.003Z,12.18
2023-01-04T23:42:26.403Z,11.11
2023-01-04T23:47:32.772Z,12.13
2023-01-04T23:52:39.332Z,11.18
2023-01-04T23:57:45.644Z,12.27
